Time;durP1;ratioP1;P1;durP2;ratioP2;P2;SDS_P1;SDS_P2;PMS_P1;PMS_P2;Temp;Humidity;BMP_temperature;BMP_pressure;BME280_temperature;BME280_humidity;BME280_pressure;Samples;Min_cycle;Max_cycle;Signal;HPM_P1;HPM_P2
2020/12/18 00:02:24;;;;;;;3.40;2.77;;;22.70;53.90;;;;;;5116796;28;20237;-68
2020/12/18 00:04:49;;;;;;;3.17;2.87;;;22.60;53.80;;;;;;5116576;28;20596;-68
2020/12/18 00:07:16;;;;;;;3.53;3.10;;;22.70;53.90;;;;;;5116570;28;20403;-68
2020/12/18 00:09:42;;;;;;;3.40;3.10;;;22.70;53.90;;;;;;5116503;28;20165;-66
2020/12/18 00:12:08;;;;;;;3.40;3.07;;;22.60;53.90;;;;;;5116387;28;20427;-68
2020/12/18 00:14:34;;;;;;;3.67;2.83;;;22.60;53.80;;;;;;5116361;28;20410;-68
2020/12/18 00:16:59;;;;;;;2.97;2.40;;;22.70;54.00;;;;;;5116663;28;20430;-67
2020/12/18 00:19:25;;;;;;;2.97;2.67;;;22.60;53.80;;;;;;5116301;28;20187;-68
2020/12/18 00:21:55;;;;;;;3.23;2.73;;;22.60;53.90;;;;;;5114941;28;20196;-67
2020/12/18 00:24:21;;;;;;;4.10;2.70;;;22.60;53.90;;;;;;5116479;28;20668;-67
2020/12/18 00:26:47;;;;;;;3.57;2.93;;;22.60;53.90;;;;;;5114987;28;20406;-67
2020/12/18 00:29:13;;;;;;;2.47;2.27;;;22.60;53.90;;;;;;5116175;28;20252;-67
2020/12/18 00:31:38;;;;;;;2.57;2.37;;;22.60;53.80;;;;;;5116037;28;20510;-67
2020/12/18 00:34:04;;;;;;;3.30;2.50;;;22.60;53.90;;;;;;5116024;28;20550;-68
2020/12/18 00:36:29;;;;;;;2.60;2.40;;;22.60;53.90;;;;;;5116034;28;20169;-67
2020/12/18 00:38:55;;;;;;;3.10;2.80;;;22.60;53.90;;;;;;5115956;28;20169;-68
2020/12/18 00:41:20;;;;;;;5.13;2.87;;;22.60;53.90;;;;;;5115814;28;20224;-68
2020/12/18 00:43:46;;;;;;;3.87;2.90;;;22.60;53.90;;;;;;5115663;28;20211;-68
2020/12/18 00:46:12;;;;;;;4.17;2.80;;;22.60;53.90;;;;;;5115820;28;20169;-68
2020/12/18 00:48:38;;;;;;;3.10;2.80;;;22.60;53.90;;;;;;5115821;28;20188;-68
2020/12/18 00:51:04;;;;;;;3.50;3.20;;;22.60;53.90;;;;;;5115773;28;20249;-68
2020/12/18 00:53:29;;;;;;;4.00;3.10;;;22.60;53.90;;;;;;5115600;28;20450;-67
2020/12/18 00:55:56;;;;;;;3.60;3.07;;;22.60;53.90;;;;;;5115603;28;20177;-67
2020/12/18 00:58:21;;;;;;;2.63;2.23;;;22.60;53.90;;;;;;5115865;28;20168;-68
2020/12/18 01:00:47;;;;;;;3.93;2.83;;;22.60;53.90;;;;;;5115747;28;20888;-68
2020/12/18 01:03:13;;;;;;;3.10;2.70;;;22.60;53.90;;;;;;5115398;28;20189;-67
2020/12/18 01:05:38;;;;;;;2.70;2.43;;;22.60;53.90;;;;;;5114097;28;20220;-68
2020/12/18 01:08:04;;;;;;;2.50;2.30;;;22.60;53.90;;;;;;5115433;28;20173;-67
2020/12/18 01:10:29;;;;;;;2.93;2.43;;;22.60;53.90;;;;;;5115638;28;20172;-68
2020/12/18 01:12:55;;;;;;;3.03;2.83;;;22.50;53.90;;;;;;5115297;28;20662;-68
2020/12/18 01:15:21;;;;;;;2.50;2.30;;;22.60;54.00;;;;;;5115269;28;20169;-68
2020/12/18 01:17:46;;;;;;;3.00;2.60;;;22.60;53.90;;;;;;5115463;28;20169;-68
2020/12/18 01:20:12;;;;;;;2.50;2.30;;;22.50;53.90;;;;;;5115124;28;20256;-68
2020/12/18 01:22:38;;;;;;;3.30;2.50;;;22.50;53.90;;;;;;5115286;28;20279;-68
2020/12/18 01:25:04;;;;;;;2.77;2.47;;;22.50;53.90;;;;;;5113816;28;20197;-68
2020/12/18 01:27:29;;;;;;;4.67;2.70;;;22.60;54.00;;;;;;5115051;28;20602;-68
2020/12/18 01:29:55;;;;;;;3.70;2.60;;;22.50;53.90;;;;;;5115309;28;20196;-68
2020/12/18 01:32:21;;;;;;;4.23;2.77;;;22.60;54.00;;;;;;5120566;22;20222;-68
2020/12/18 01:34:47;;;;;;;3.00;2.20;;;22.50;53.90;;;;;;5094640;28;20170;-67
2020/12/18 01:37:12;;;;;;;2.70;2.40;;;22.50;53.90;;;;;;5094454;28;20173;-67
2020/12/18 01:39:38;;;;;;;2.97;2.40;;;22.50;53.90;;;;;;5094657;28;20448;-67
2020/12/18 01:42:05;;;;;;;3.30;2.33;;;22.50;53.90;;;;;;5094221;28;20189;-67
2020/12/18 01:44:31;;;;;;;5.80;2.40;;;22.50;54.00;;;;;;5094173;28;20547;-68
2020/12/18 01:46:57;;;;;;;3.40;2.77;;;22.50;54.00;;;;;;5094248;28;20543;-68
2020/12/18 01:49:23;;;;;;;3.07;2.77;;;22.50;54.00;;;;;;5094136;28;20161;-67
2020/12/18 01:51:50;;;;;;;2.60;2.20;;;22.50;54.00;;;;;;5094310;28;20424;-67
2020/12/18 01:54:18;;;;;;;3.77;2.60;;;22.50;54.00;;;;;;5094322;28;20412;-67
2020/12/18 01:56:44;;;;;;;2.67;2.43;;;22.50;54.00;;;;;;5094321;28;20906;-67
2020/12/18 01:59:10;;;;;;;2.33;2.13;;;22.50;54.00;;;;;;5094047;28;20410;-68
2020/12/18 02:01:36;;;;;;;2.47;2.03;;;22.50;54.00;;;;;;5093880;28;20177;-67
2020/12/18 02:04:02;;;;;;;2.93;2.53;;;22.50;54.00;;;;;;5093832;28;20983;-68
2020/12/18 02:06:30;;;;;;;2.67;2.30;;;22.50;54.00;;;;;;5093931;28;20176;-68
2020/12/18 02:08:56;;;;;;;2.67;2.40;;;22.50;54.00;;;;;;5093894;28;20438;-68
2020/12/18 02:11:23;;;;;;;3.30;2.53;;;22.50;54.00;;;;;;5094256;28;20408;-69
2020/12/18 02:13:56;;;;;;;2.30;2.00;;;22.50;54.00;;;;;;5075558;28;20443;-68
2020/12/18 02:16:22;;;;;;;3.20;2.57;;;22.50;54.00;;;;;;5093701;28;20412;-68
2020/12/18 02:18:48;;;;;;;2.53;2.13;;;22.50;54.00;;;;;;5093906;28;20506;-67
2020/12/18 02:21:14;;;;;;;3.10;2.63;;;22.50;54.00;;;;;;5093637;28;20492;-67
2020/12/18 02:23:40;;;;;;;2.30;2.10;;;22.50;54.00;;;;;;5093777;28;20197;-68
2020/12/18 02:26:08;;;;;;;2.57;2.10;;;22.50;54.00;;;;;;5093553;28;20779;-68
2020/12/18 02:28:41;;;;;;;2.53;2.33;;;22.50;54.00;;;;;;5093585;28;20423;-68
2020/12/18 02:31:08;;;;;;;2.47;2.23;;;22.50;54.00;;;;;;5093599;28;20388;-68
2020/12/18 02:33:33;;;;;;;3.60;3.30;;;22.50;54.00;;;;;;5093289;28;20435;-67
2020/12/18 02:36:03;;;;;;;2.63;2.43;;;22.50;54.00;;;;;;5093406;28;20411;-68
2020/12/18 02:38:29;;;;;;;2.73;2.17;;;22.50;54.00;;;;;;5092777;28;20706;-68
2020/12/18 02:40:55;;;;;;;3.27;2.23;;;22.50;54.00;;;;;;5093352;28;20534;-68
2020/12/18 02:43:21;;;;;;;2.43;2.23;;;22.40;53.90;;;;;;5093168;28;20475;-68
2020/12/18 02:45:47;;;;;;;2.40;2.20;;;22.40;53.90;;;;;;5075068;28;20973;-67
2020/12/18 02:48:13;;;;;;;2.73;2.33;;;22.50;54.00;;;;;;5075132;28;20941;-68
2020/12/18 02:50:39;;;;;;;2.53;2.20;;;22.40;53.90;;;;;;5093236;28;20407;-68
2020/12/18 02:53:14;;;;;;;3.77;2.47;;;22.40;53.90;;;;;;5093160;28;20185;-68
2020/12/18 02:55:40;;;;;;;3.30;2.60;;;22.50;54.00;;;;;;5093154;28;20258;-68
2020/12/18 02:58:06;;;;;;;3.13;2.90;;;22.40;53.90;;;;;;5093229;28;20458;-68
2020/12/18 03:00:33;;;;;;;2.77;2.57;;;22.40;53.90;;;;;;5093092;28;20408;-69
2020/12/18 03:02:58;;;;;;;2.13;1.93;;;22.50;54.00;;;;;;5093069;28;20526;-67
2020/12/18 03:05:24;;;;;;;2.33;2.13;;;22.40;54.00;;;;;;5092954;28;20546;-68
2020/12/18 03:07:49;;;;;;;2.13;1.93;;;22.40;53.90;;;;;;5093022;28;20166;-68
2020/12/18 03:10:15;;;;;;;2.10;1.90;;;22.40;53.90;;;;;;5093318;28;20629;-68
2020/12/18 03:12:40;;;;;;;2.40;2.20;;;22.40;53.90;;;;;;5093025;28;20197;-68
2020/12/18 03:15:06;;;;;;;2.63;2.43;;;22.40;54.00;;;;;;5093136;28;20478;-68
2020/12/18 03:17:32;;;;;;;3.40;2.40;;;22.40;54.00;;;;;;5093221;28;20178;-70
2020/12/18 03:19:57;;;;;;;2.20;2.00;;;22.50;54.10;;;;;;5092929;28;20308;-67
2020/12/18 03:22:23;;;;;;;2.17;1.97;;;22.50;54.00;;;;;;5092884;28;20249;-67
2020/12/18 03:24:48;;;;;;;2.47;2.27;;;22.40;54.00;;;;;;5093181;28;20663;-67
2020/12/18 03:27:14;;;;;;;2.53;2.03;;;22.40;54.00;;;;;;5092888;28;20177;-67
2020/12/18 03:29:39;;;;;;;2.60;2.20;;;22.50;54.10;;;;;;5092860;28;20166;-67
2020/12/18 03:32:05;;;;;;;2.83;2.10;;;22.40;54.00;;;;;;5092617;28;20197;-67
2020/12/18 03:34:31;;;;;;;2.50;2.30;;;22.40;54.00;;;;;;5093112;28;20621;-67
2020/12/18 03:36:56;;;;;;;2.27;2.07;;;22.40;54.00;;;;;;5092754;28;20166;-68
2020/12/18 03:39:22;;;;;;;2.43;2.20;;;22.40;54.00;;;;;;5092798;28;20176;-68
2020/12/18 03:41:47;;;;;;;2.90;2.60;;;22.40;54.00;;;;;;5092722;28;20173;-68
2020/12/18 03:44:14;;;;;;;2.60;2.40;;;22.40;54.00;;;;;;5092852;28;20228;-68
2020/12/18 03:46:39;;;;;;;2.90;2.07;;;22.40;54.00;;;;;;5092678;28;20703;-68
2020/12/18 03:49:05;;;;;;;2.87;2.33;;;22.50;54.00;;;;;;5092914;28;20491;-68
2020/12/18 03:51:30;;;;;;;2.80;2.43;;;22.40;54.00;;;;;;5096546;28;20177;-68
2020/12/18 03:53:56;;;;;;;2.37;2.17;;;22.50;54.00;;;;;;5096467;28;20198;-67
2020/12/18 03:56:22;;;;;;;2.60;1.97;;;22.40;54.00;;;;;;5096398;28;20174;-68
2020/12/18 03:58:47;;;;;;;3.40;2.60;;;22.40;54.00;;;;;;5096317;28;20538;-67
2020/12/18 04:01:13;;;;;;;2.40;2.20;;;22.40;54.00;;;;;;5096745;28;20177;-68
2020/12/18 04:03:39;;;;;;;3.40;2.60;;;22.40;54.00;;;;;;5096065;28;20190;-68
2020/12/18 04:06:04;;;;;;;2.40;2.13;;;22.40;54.00;;;;;;5096241;28;20189;-67
2020/12/18 04:08:30;;;;;;;2.17;1.97;;;22.50;54.10;;;;;;5096193;28;20177;-68
2020/12/18 04:10:55;;;;;;;2.30;2.10;;;22.40;54.00;;;;;;5096379;28;20168;-68
2020/12/18 04:13:21;;;;;;;2.37;1.90;;;22.40;54.00;;;;;;5096272;28;20177;-66
2020/12/18 04:15:47;;;;;;;2.90;2.20;;;22.40;54.00;;;;;;5096144;28;20193;-68
2020/12/18 04:18:13;;;;;;;2.00;1.80;;;22.40;54.00;;;;;;5096002;28;20505;-68
2020/12/18 04:20:39;;;;;;;2.20;2.00;;;22.40;54.00;;;;;;5095930;28;20173;-67
2020/12/18 04:23:06;;;;;;;2.40;2.10;;;22.40;54.00;;;;;;5077727;28;20432;-67
2020/12/18 04:25:31;;;;;;;2.13;1.90;;;22.40;54.00;;;;;;5095811;28;20197;-67
2020/12/18 04:27:57;;;;;;;2.27;1.70;;;22.40;54.00;;;;;;5095774;28;20408;-67
2020/12/18 04:30:23;;;;;;;2.13;1.93;;;22.40;54.00;;;;;;5095764;28;20201;-67
2020/12/18 04:32:48;;;;;;;2.40;2.03;;;22.40;54.00;;;;;;5095727;28;20215;-66
2020/12/18 04:35:14;;;;;;;2.93;2.20;;;22.40;54.00;;;;;;5095742;28;20193;-67
2020/12/18 04:37:39;;;;;;;2.40;2.20;;;22.40;54.00;;;;;;5095726;28;20196;-67
2020/12/18 04:40:05;;;;;;;1.93;1.73;;;22.40;54.00;;;;;;5095657;28;20252;-67
2020/12/18 04:42:35;;;;;;;2.73;2.10;;;22.40;54.00;;;;;;5077801;28;20202;-67
2020/12/18 04:45:04;;;;;;;2.57;2.37;;;22.40;54.60;;;;;;5095566;28;20194;-67
2020/12/18 04:47:36;;;;;;;2.83;1.80;;;22.40;54.00;;;;;;5095411;28;20431;-67
2020/12/18 04:50:02;;;;;;;2.50;2.30;;;22.40;54.00;;;;;;5095383;28;20392;-67
2020/12/18 04:52:29;;;;;;;3.00;2.20;;;22.40;54.00;;;;;;5095240;28;20790;-67
2020/12/18 04:54:59;;;;;;;2.37;1.97;;;22.40;54.10;;;;;;5095301;28;20415;-67
2020/12/18 04:57:28;;;;;;;2.57;2.07;;;22.40;54.00;;;;;;5095367;28;20894;-67
2020/12/18 04:59:54;;;;;;;2.23;2.03;;;22.40;54.10;;;;;;5095479;28;20399;-67
2020/12/18 05:02:21;;;;;;;3.93;2.00;;;22.30;54.00;;;;;;5094167;28;20487;-67
2020/12/18 05:04:47;;;;;;;2.20;2.00;;;22.30;54.00;;;;;;5095019;28;20916;-65
2020/12/18 05:07:12;;;;;;;2.10;1.87;;;22.40;54.10;;;;;;5095041;28;20443;-66
2020/12/18 05:09:38;;;;;;;2.60;2.20;;;22.40;54.10;;;;;;5095261;28;20533;-67
2020/12/18 05:12:06;;;;;;;2.00;1.80;;;22.40;54.10;;;;;;5095083;28;20201;-67
2020/12/18 05:14:31;;;;;;;2.50;1.83;;;22.40;54.10;;;;;;5094894;28;20170;-67
2020/12/18 05:17:05;;;;;;;2.30;1.80;;;22.30;54.10;;;;;;5095129;28;20412;-67
2020/12/18 05:19:37;;;;;;;2.30;2.10;;;22.30;54.10;;;;;;5094839;28;20158;-66
2020/12/18 05:22:05;;;;;;;2.27;1.70;;;22.30;54.10;;;;;;5094812;28;20431;-66
2020/12/18 05:24:30;;;;;;;1.93;1.63;;;22.30;54.10;;;;;;5094592;28;20538;-67
2020/12/18 05:26:59;;;;;;;1.83;1.73;;;22.30;54.10;;;;;;5076512;28;20511;-66
2020/12/18 05:29:26;;;;;;;2.10;1.90;;;22.30;54.10;;;;;;5076488;28;20242;-67
2020/12/18 05:31:55;;;;;;;2.07;1.87;;;22.30;54.60;;;;;;5094352;28;20443;-67
2020/12/18 05:34:20;;;;;;;1.93;1.67;;;22.30;54.10;;;;;;5094517;28;20481;-69
2020/12/18 05:36:46;;;;;;;2.40;1.83;;;22.30;54.00;;;;;;5094728;28;20503;-69
2020/12/18 05:39:13;;;;;;;2.37;2.00;;;22.30;54.00;;;;;;5094455;28;20181;-68
2020/12/18 05:41:59;;;;;;;2.90;2.30;;;22.30;54.00;;;;;;5094299;28;20455;-67
2020/12/18 05:44:26;;;;;;;2.93;1.90;;;22.30;54.00;;;;;;5094487;28;20451;-68
2020/12/18 05:47:00;;;;;;;2.13;1.60;;;22.30;54.00;;;;;;5094181;28;20461;-69
2020/12/18 05:49:38;;;;;;;2.00;1.70;;;22.40;54.10;;;;;;5094272;28;20384;-69
2020/12/18 05:52:05;;;;;;;2.20;1.90;;;22.30;54.00;;;;;;5094052;28;20415;-69
2020/12/18 05:54:35;;;;;;;2.30;1.80;;;22.40;54.00;;;;;;5094459;28;20439;-69
2020/12/18 05:57:10;;;;;;;2.10;1.87;;;22.30;54.00;;;;;;5094143;28;20396;-69
2020/12/18 05:59:41;;;;;;;2.53;2.00;;;22.40;54.00;;;;;;5094379;28;20470;-68
2020/12/18 06:02:12;;;;;;;2.30;1.83;;;22.40;54.00;;;;;;5094250;28;20802;-68
2020/12/18 06:04:38;;;;;;;2.03;1.77;;;22.40;54.00;;;;;;5093953;28;20890;-67
2020/12/18 06:07:05;;;;;;;1.97;1.80;;;22.40;54.00;;;;;;5093934;28;20493;-68
2020/12/18 06:09:31;;;;;;;2.77;2.10;;;22.40;54.00;;;;;;5093905;28;20415;-69
2020/12/18 06:11:57;;;;;;;2.43;1.97;;;22.40;54.00;;;;;;5093640;28;20435;-67
2020/12/18 06:14:23;;;;;;;3.00;2.10;;;22.40;54.00;;;;;;5093772;28;20412;-68
2020/12/18 06:16:51;;;;;;;2.30;1.90;;;22.40;53.90;;;;;;5093947;28;20415;-66
2020/12/18 06:19:19;;;;;;;2.40;1.77;;;22.40;54.50;;;;;;5093722;28;20541;-68
2020/12/18 06:21:55;;;;;;;2.90;2.07;;;22.40;53.90;;;;;;5093573;28;20412;-68
2020/12/18 06:24:20;;;;;;;3.70;2.10;;;22.40;53.90;;;;;;5093558;28;20436;-69
2020/12/18 06:26:51;;;;;;;4.63;2.07;;;22.40;53.80;;;;;;5093826;28;20426;-68
2020/12/18 06:29:17;;;;;;;2.10;1.77;;;22.40;53.80;;;;;;5093619;28;20187;-68
2020/12/18 06:31:43;;;;;;;2.77;2.30;;;22.40;53.90;;;;;;5093347;28;20411;-69
2020/12/18 06:34:10;;;;;;;3.00;1.83;;;22.40;53.80;;;;;;5093497;28;20404;-69
2020/12/18 06:36:48;;;;;;;3.13;2.30;;;22.40;53.80;;;;;;5093566;28;20166;-67
2020/12/18 06:39:50;;;;;;;3.10;1.87;;;22.40;53.80;;;;;;5093582;28;20438;-67
2020/12/18 06:42:16;;;;;;;2.70;2.30;;;22.40;53.80;;;;;;5011339;28;20442;-69
2020/12/18 06:44:43;;;;;;;2.53;2.33;;;22.40;53.90;;;;;;5077208;28;20465;-68
2020/12/18 06:47:18;;;;;;;2.30;2.10;;;22.40;53.90;;;;;;5093274;28;20420;-70
2020/12/18 06:49:56;;;;;;;3.00;2.00;;;22.40;53.80;;;;;;5075043;28;20399;-70
2020/12/18 06:52:50;;;;;;;2.47;2.27;;;22.40;53.80;;;;;;5093392;28;20427;-69
2020/12/18 06:55:32;;;;;;;2.57;1.90;;;22.40;53.80;;;;;;5093455;28;20392;-70
2020/12/18 06:58:09;;;;;;;1.93;1.83;;;22.40;53.90;;;;;;5093446;28;20476;-71
2020/12/18 07:00:45;;;;;;;2.60;2.10;;;22.40;53.90;;;;;;5093067;28;20415;-70
2020/12/18 07:03:36;;;;;;;2.10;1.90;;;22.40;53.80;;;;;;5093152;28;20431;-70
2020/12/18 07:06:05;;;;;;;2.40;2.10;;;22.40;53.80;;;;;;5093059;28;20469;-70
2020/12/18 07:08:32;;;;;;;2.10;1.87;;;22.40;53.80;;;;;;5093223;28;20793;-70
2020/12/18 07:11:10;;;;;;;2.37;2.17;;;22.50;53.80;;;;;;5093092;28;20744;-70
2020/12/18 07:13:38;;;;;;;2.37;1.87;;;22.50;53.70;;;;;;5093172;28;20942;-70
2020/12/18 07:16:06;;;;;;;2.70;2.20;;;22.60;53.80;;;;;;5092853;28;20975;-69
2020/12/18 07:18:35;;;;;;;4.37;2.50;;;22.60;53.80;;;;;;5092997;28;20414;-69
2020/12/18 07:21:06;;;;;;;3.00;2.00;;;22.60;53.70;;;;;;5092921;28;20404;-72
2020/12/18 07:23:35;;;;;;;1.97;1.77;;;22.70;53.70;;;;;;5092850;28;20423;-69
2020/12/18 07:26:02;;;;;;;5.40;2.37;;;22.70;53.50;;;;;;5096627;28;20909;-69
2020/12/18 07:28:28;;;;;;;4.07;2.10;;;22.70;54.30;;;;;;5097154;28;20902;-70
2020/12/18 07:30:56;;;;;;;1.70;1.30;;;22.70;53.70;;;;;;5096926;28;20762;-69
2020/12/18 07:33:22;;;;;;;2.70;1.90;;;22.70;53.70;;;;;;5096986;28;21030;-69
2020/12/18 07:35:56;;;;;;;2.30;1.80;;;22.80;53.70;;;;;;5079107;28;20476;-69
2020/12/18 07:38:32;;;;;;;1.83;1.73;;;22.80;53.70;;;;;;5078539;28;20415;-69
2020/12/18 07:41:09;;;;;;;2.27;2.07;;;22.80;53.60;;;;;;5078611;28;20446;-68
2020/12/18 07:43:36;;;;;;;2.00;1.80;;;22.80;53.60;;;;;;5096801;28;20419;-69
2020/12/18 07:46:11;;;;;;;3.63;1.60;;;22.80;53.60;;;;;;5096609;28;20412;-70
2020/12/18 07:48:41;;;;;;;2.10;1.90;;;22.80;53.60;;;;;;5096552;28;20802;-69
2020/12/18 07:51:19;;;;;;;3.20;1.93;;;22.80;53.70;;;;;;5078290;28;20399;-68
2020/12/18 07:53:46;;;;;;;2.43;1.90;;;22.80;53.70;;;;;;5096389;28;20423;-68
2020/12/18 07:56:13;;;;;;;2.53;1.83;;;22.80;53.60;;;;;;5096398;28;20419;-69
2020/12/18 07:58:48;;;;;;;2.80;1.80;;;22.90;53.70;;;;;;5078071;28;20403;-69
2020/12/18 08:01:17;;;;;;;1.77;1.67;;;22.90;53.70;;;;;;5096208;28;20390;-69
2020/12/18 08:03:49;;;;;;;1.93;1.73;;;22.90;53.70;;;;;;5096107;28;20414;-69
2020/12/18 08:06:18;;;;;;;4.50;2.00;;;22.90;53.60;;;;;;5096253;28;20755;-69
2020/12/18 08:08:52;;;;;;;2.50;2.07;;;22.90;53.60;;;;;;5096346;28;20485;-69
2020/12/18 08:11:19;;;;;;;2.20;2.00;;;22.90;53.60;;;;;;5096473;28;20394;-69
2020/12/18 08:13:45;;;;;;;3.37;1.93;;;23.00;53.70;;;;;;5096001;28;20791;-69
2020/12/18 08:16:24;;;;;;;2.20;2.00;;;23.00;53.70;;;;;;5096223;28;20404;-67
2020/12/18 08:18:59;;;;;;;1.73;1.60;;;23.00;53.60;;;;;;5094341;28;20922;-69
2020/12/18 08:21:25;;;;;;;1.50;1.40;;;23.00;53.60;;;;;;5077803;28;20408;-69
2020/12/18 08:24:32;;;;;;;2.30;1.90;;;23.00;53.60;;;;;;5095771;28;20430;-70
2020/12/18 08:27:17;;;;;;;2.00;1.80;;;23.00;53.60;;;;;;5095014;28;20455;-67
2020/12/18 08:29:44;;;;;;;2.03;1.30;;;23.00;53.60;;;;;;5095780;28;20867;-68
2020/12/18 08:32:17;;;;;;;1.90;1.80;;;23.00;53.70;;;;;;5095602;28;20867;-70
2020/12/18 08:34:45;;;;;;;2.57;1.57;;;23.00;53.70;;;;;;5095844;28;20404;-68
2020/12/18 08:37:11;;;;;;;1.93;1.70;;;23.00;53.60;;;;;;5094706;28;20427;-69
2020/12/18 08:39:36;;;;;;;2.20;1.67;;;23.00;53.60;;;;;;5095942;28;20415;-68
2020/12/18 08:42:03;;;;;;;3.30;1.90;;;23.00;53.60;;;;;;5077346;28;20213;-68
2020/12/18 08:44:40;;;;;;;1.77;1.60;;;23.10;53.70;;;;;;5094071;28;20740;-70
2020/12/18 08:47:27;;;;;;;4.23;1.70;;;23.10;53.70;;;;;;5093975;28;20457;-69
2020/12/18 08:49:54;;;;;;;1.90;1.60;;;23.10;53.70;;;;;;5094075;28;20398;-69
2020/12/18 08:52:25;;;;;;;1.47;1.37;;;23.10;53.70;;;;;;5093771;28;20435;-68
2020/12/18 08:55:02;;;;;;;2.00;1.70;;;23.10;53.70;;;;;;5093856;28;20424;-69
2020/12/18 08:57:31;;;;;;;2.60;1.60;;;23.10;53.60;;;;;;5094617;28;20414;-69
2020/12/18 09:00:07;;;;;;;1.40;1.30;;;23.10;53.60;;;;;;5095029;28;20423;-69
2020/12/18 09:02:34;;;;;;;2.13;1.70;;;23.10;53.60;;;;;;5095119;28;20422;-67
2020/12/18 09:05:30;;;;;;;1.93;1.67;;;23.10;53.60;;;;;;5095374;28;20545;-68
2020/12/18 09:08:03;;;;;;;1.57;1.43;;;23.20;53.70;;;;;;5094577;28;20420;-68
2020/12/18 09:10:44;;;;;;;1.70;1.60;;;23.10;53.60;;;;;;5095715;28;20446;-68
2020/12/18 09:13:27;;;;;;;2.30;1.97;;;23.20;53.70;;;;;;5095608;28;20510;-68
2020/12/18 09:16:04;;;;;;;2.00;1.80;;;23.20;53.70;;;;;;5095822;28;20415;-68
2020/12/18 09:18:44;;;;;;;1.90;1.70;;;23.20;53.70;;;;;;5094973;28;20402;-68
2020/12/18 09:21:12;;;;;;;4.07;1.80;;;23.20;53.70;;;;;;5076644;28;20419;-69
2020/12/18 09:23:39;;;;;;;2.33;1.83;;;23.10;53.70;;;;;;5094663;28;20482;-68
2020/12/18 09:26:05;;;;;;;4.20;2.13;;;23.10;53.60;;;;;;5094570;28;20416;-66
2020/12/18 09:28:40;;;;;;;2.70;2.20;;;23.20;53.70;;;;;;5094672;28;20417;-67
2020/12/18 09:31:08;;;;;;;3.63;2.20;;;23.20;53.70;;;;;;5094503;28;20161;-68
2020/12/18 09:33:40;;;;;;;4.80;2.73;;;23.20;53.70;;;;;;5076212;28;20917;-68
2020/12/18 09:36:06;;;;;;;3.03;2.00;;;23.20;53.60;;;;;;5094471;28;20926;-69
2020/12/18 09:38:37;;;;;;;3.63;2.20;;;23.20;53.60;;;;;;5094423;28;20427;-69
2020/12/18 09:41:05;;;;;;;2.73;2.43;;;23.20;53.60;;;;;;5094483;28;20182;-67
2020/12/18 09:43:31;;;;;;;3.60;2.60;;;23.20;53.60;;;;;;5076147;28;20527;-69
2020/12/18 09:45:57;;;;;;;4.83;2.60;;;23.20;53.60;;;;;;5094243;28;20892;-69
2020/12/18 09:48:23;;;;;;;5.77;2.83;;;23.20;53.60;;;;;;5075650;28;20480;-69
2020/12/18 09:50:50;;;;;;;4.77;2.50;;;23.20;53.60;;;;;;5094149;28;20436;-69
2020/12/18 09:53:17;;;;;;;5.53;3.30;;;23.20;53.50;;;;;;5075834;28;20451;-67
2020/12/18 09:55:42;;;;;;;3.87;2.60;;;23.20;53.50;;;;;;5094085;28;20415;-68
2020/12/18 09:58:08;;;;;;;3.53;2.30;;;23.20;53.50;;;;;;5094070;28;20416;-69
2020/12/18 10:00:34;;;;;;;3.10;2.57;;;23.20;53.50;;;;;;5095074;28;20174;-68
2020/12/18 10:02:59;;;;;;;5.20;3.40;;;23.20;53.50;;;;;;5075716;28;20280;-68
2020/12/18 10:05:26;;;;;;;3.70;2.60;;;23.20;53.50;;;;;;5093923;28;20205;-68
2020/12/18 10:07:52;;;;;;;3.50;2.60;;;23.20;53.50;;;;;;5075651;28;20174;-68
2020/12/18 10:10:18;;;;;;;3.33;2.97;;;23.20;53.50;;;;;;5093819;28;20404;-69
2020/12/18 10:12:44;;;;;;;6.00;3.13;;;23.20;53.50;;;;;;5075885;28;20443;-69
2020/12/18 10:15:10;;;;;;;3.07;2.77;;;23.20;53.50;;;;;;5093791;28;20170;-68
2020/12/18 10:17:36;;;;;;;3.57;2.97;;;23.20;53.50;;;;;;5075485;28;20435;-69
2020/12/18 10:20:03;;;;;;;4.57;3.13;;;23.20;53.50;;;;;;5093756;28;20277;-69
2020/12/18 10:22:28;;;;;;;3.23;2.60;;;23.20;53.50;;;;;;5093617;28;20193;-69
2020/12/18 10:24:54;;;;;;;4.90;2.80;;;23.20;53.50;;;;;;5093535;28;20470;-69
2020/12/18 10:27:20;;;;;;;5.00;2.90;;;23.20;53.50;;;;;;5092531;28;20254;-69
2020/12/18 10:29:46;;;;;;;5.90;2.70;;;23.20;53.50;;;;;;5093562;28;20404;-69
2020/12/18 10:32:11;;;;;;;4.90;3.10;;;23.20;53.50;;;;;;5093237;28;20209;-69
2020/12/18 10:34:37;;;;;;;5.00;3.27;;;23.20;53.50;;;;;;5093427;28;20173;-69
2020/12/18 10:37:03;;;;;;;4.70;3.70;;;23.20;53.50;;;;;;5093427;28;20179;-69
2020/12/18 10:39:28;;;;;;;5.07;3.47;;;23.20;53.50;;;;;;5075314;28;20177;-70
2020/12/18 10:41:54;;;;;;;4.50;3.10;;;23.20;53.50;;;;;;5093318;28;20242;-69
2020/12/18 10:44:20;;;;;;;4.10;2.90;;;23.20;53.50;;;;;;5093294;28;20197;-69
2020/12/18 10:46:48;;;;;;;5.63;3.20;;;23.20;53.50;;;;;;5093170;28;20177;-68
2020/12/18 10:49:14;;;;;;;6.33;3.50;;;23.20;53.50;;;;;;5093185;28;20404;-67
2020/12/18 10:51:41;;;;;;;5.50;2.90;;;23.20;54.10;;;;;;5093115;28;20412;-66
2020/12/18 10:54:08;;;;;;;5.03;3.13;;;23.20;53.50;;;;;;5093439;28;20407;-67
2020/12/18 10:56:42;;;;;;;4.70;3.00;;;23.20;53.50;;;;;;5093193;28;20419;-67
2020/12/18 10:59:08;;;;;;;5.30;2.73;;;23.20;53.50;;;;;;5092393;28;20430;-68
2020/12/18 11:01:34;;;;;;;5.97;2.60;;;23.20;53.50;;;;;;5092944;28;20415;-67
2020/12/18 11:03:59;;;;;;;5.10;2.93;;;23.20;53.50;;;;;;5093046;28;20169;-68
2020/12/18 11:06:25;;;;;;;6.30;3.50;;;23.20;53.50;;;;;;5093360;28;20200;-67
2020/12/18 11:08:51;;;;;;;4.60;3.00;;;23.20;53.50;;;;;;5092997;28;20162;-66
2020/12/18 11:11:16;;;;;;;3.67;3.00;;;23.20;53.50;;;;;;5093128;28;20169;-68
2020/12/18 11:13:42;;;;;;;3.00;2.40;;;23.20;53.50;;;;;;5092721;28;20186;-68
2020/12/18 11:16:08;;;;;;;4.60;3.00;;;23.20;53.50;;;;;;5093298;28;20226;-68
2020/12/18 11:18:34;;;;;;;3.67;2.90;;;23.20;53.50;;;;;;5092982;28;20174;-68
2020/12/18 11:21:04;;;;;;;3.53;2.67;;;23.20;53.50;;;;;;5093005;28;20814;-68
2020/12/18 11:23:30;;;;;;;4.80;3.50;;;23.30;53.60;;;;;;5092984;28;20201;-68
2020/12/18 11:25:56;;;;;;;5.37;3.03;;;23.20;53.50;;;;;;5074710;28;20467;-68
2020/12/18 11:28:22;;;;;;;5.83;3.03;;;23.20;53.50;;;;;;5092822;28;20549;-68
2020/12/18 11:30:48;;;;;;;3.40;2.60;;;23.20;54.10;;;;;;5093094;28;20174;-68
2020/12/18 11:33:13;;;;;;;4.03;3.37;;;23.20;53.50;;;;;;5092879;28;20832;-67
2020/12/18 11:35:39;;;;;;;3.90;2.60;;;23.20;53.50;;;;;;5093044;28;20177;-67
2020/12/18 11:38:04;;;;;;;4.30;2.90;;;23.20;53.50;;;;;;5074722;28;20181;-68
2020/12/18 11:40:30;;;;;;;3.67;2.70;;;23.20;53.50;;;;;;5092781;28;20166;-68
2020/12/18 11:42:56;;;;;;;4.17;2.80;;;23.30;53.60;;;;;;5092707;28;20259;-68
2020/12/18 11:45:21;;;;;;;4.70;3.57;;;23.20;53.60;;;;;;5092437;28;20240;-68
2020/12/18 11:47:47;;;;;;;4.23;2.90;;;23.20;53.50;;;;;;5092676;28;20173;-68
2020/12/18 11:50:12;;;;;;;6.67;3.17;;;23.30;53.60;;;;;;5092720;28;20170;-68
2020/12/18 11:52:38;;;;;;;5.50;2.97;;;23.20;53.50;;;;;;5092624;28;20193;-68
2020/12/18 11:55:04;;;;;;;4.77;2.97;;;23.30;53.60;;;;;;5092623;28;20174;-68
2020/12/18 11:57:29;;;;;;;3.40;3.00;;;23.20;53.50;;;;;;5074410;28;20178;-68
2020/12/18 11:59:55;;;;;;;6.13;3.40;;;23.30;53.50;;;;;;5092526;28;20178;-68
2020/12/18 12:02:20;;;;;;;5.27;3.33;;;23.30;53.50;;;;;;5092634;28;20189;-68
2020/12/18 12:04:46;;;;;;;3.00;2.70;;;23.30;53.50;;;;;;5092546;28;20189;-68
2020/12/18 12:07:12;;;;;;;3.60;3.00;;;23.30;53.50;;;;;;5074397;28;20170;-68
2020/12/18 12:09:38;;;;;;;5.03;3.07;;;23.30;53.50;;;;;;5092513;28;20166;-69
2020/12/18 12:12:03;;;;;;;6.40;2.70;;;23.30;53.50;;;;;;5095615;28;20452;-68
2020/12/18 12:14:29;;;;;;;4.23;2.93;;;23.20;53.50;;;;;;5096028;28;20214;-68
2020/12/18 12:16:54;;;;;;;5.17;3.10;;;23.20;53.50;;;;;;5096078;28;20172;-68
2020/12/18 12:19:20;;;;;;;4.60;2.83;;;23.20;53.50;;;;;;5095860;28;20174;-71
2020/12/18 12:21:46;;;;;;;3.60;2.80;;;23.20;53.60;;;;;;5095876;28;20162;-68
2020/12/18 12:24:12;;;;;;;3.67;2.97;;;23.20;53.60;;;;;;5096044;28;20197;-69
2020/12/18 12:26:38;;;;;;;4.37;2.70;;;23.20;53.60;;;;;;5095849;28;20498;-67
2020/12/18 12:29:03;;;;;;;5.23;2.80;;;23.10;53.50;;;;;;5095763;28;20172;-69
2020/12/18 12:31:29;;;;;;;4.73;2.53;;;23.10;53.60;;;;;;5095816;28;20224;-69
2020/12/18 12:33:54;;;;;;;3.20;2.90;;;23.10;53.60;;;;;;5095749;28;20216;-69
2020/12/18 12:36:22;;;;;;;4.93;2.57;;;23.10;53.60;;;;;;5096020;28;20521;-69
2020/12/18 12:38:48;;;;;;;3.60;2.60;;;23.10;53.60;;;;;;5095580;28;20535;-68
2020/12/18 12:41:15;;;;;;;2.70;2.40;;;23.10;53.60;;;;;;5095599;28;20399;-70
2020/12/18 12:43:40;;;;;;;3.47;2.77;;;23.10;53.60;;;;;;5077378;28;20965;-68
2020/12/18 12:46:06;;;;;;;4.00;2.70;;;23.10;53.60;;;;;;5077274;28;20447;-68
2020/12/18 12:48:32;;;;;;;2.90;2.60;;;23.10;53.60;;;;;;5095418;28;20162;-68
2020/12/18 12:50:58;;;;;;;3.33;2.30;;;23.00;53.50;;;;;;5077249;28;20170;-69
2020/12/18 12:53:24;;;;;;;2.83;2.53;;;23.00;53.50;;;;;;5095345;28;20335;-68